Spabunker 21 — EAFF — position and weather

sailwx.info

Track history (hours):
 
Tides and Currents Weather Stations Pressure Air Temp Water Temp Dewpoint Dewpoint Depression Visibility Wind Speed Wind Dir Waves Ship Positions

Spabunker 21

Last reported at 2016-Feb-09 05:33 UTC. Time now 2016-Feb-09 05:52 UTC.
Position N 28°08' W 015°25'.

Length 82 m; draft 4.1 m.

Type: Ship. MMSI: 224976000.

Date/timePositionNaut miles runAvg speedWind from/ knotsBaromVisibWave heightAir tempDewpointWater temp
2016-Feb-09 05:33N 28°08' W 015°25'0 0.0
2016-Feb-09 04:33N 28°08' W 015°25'0 0.0
2016-Feb-09 03:33N 28°09' W 015°25'0 0.0
2016-Feb-09 02:33N 28°08' W 015°25'0 0.0
2016-Feb-09 01:33N 28°09' W 015°25'0 0.0
2016-Feb-09 00:33N 28°09' W 015°25'0 0.0
2016-Feb-08 23:33N 28°09' W 015°25'0 0.0
2016-Feb-08 22:33N 28°09' W 015°25'0 0.0
2016-Feb-08 21:33N 28°09' W 015°25'1 0.5
2016-Feb-08 20:33N 28°08' W 015°25'0 0.0
2016-Feb-08 19:33N 28°08' W 015°25'0 0.0
2016-Feb-08 18:34N 28°08' W 015°25'0 0.0
2016-Feb-08 17:34N 28°08' W 015°25'2 1.9
2016-Feb-08 16:34N 28°06' W 015°24'0 0.0
2016-Feb-08 15:33N 28°06' W 015°24'0 0.0
2016-Feb-08 14:33N 28°06' W 015°24'0 0.0
2016-Feb-08 13:34N 28°06' W 015°24'0 0.0
2016-Feb-08 12:34N 28°06' W 015°24'0 0.0
2016-Feb-08 11:33N 28°06' W 015°24'0 0.0
2016-Feb-08 10:33N 28°06' W 015°24'  
2016-Feb-05 13:06N 28°08' W 015°25'0 0.0
2016-Feb-05 12:33N 28°08' W 015°25'0 0.0
2016-Feb-05 11:33N 28°08' W 015°25'1 1.2
2016-Feb-05 10:33N 28°07' W 015°25'1 0.0
2016-Feb-04 06:33N 28°09' W 015°25'0 0.0
2016-Feb-04 05:33N 28°09' W 015°25'0 0.0
2016-Feb-04 04:33N 28°09' W 015°25'0 0.0
2016-Feb-04 03:33N 28°09' W 015°25'1 1.1
2016-Feb-04 02:33N 28°07' W 015°25'2 1.8
2016-Feb-04 01:33N 28°06' W 015°24'0 0.0
2016-Feb-04 00:33N 28°06' W 015°24'0 0.0
2016-Feb-03 23:33N 28°06' W 015°24'0 0.0
2016-Feb-03 22:33N 28°06' W 015°24'0 0.0
2016-Feb-03 21:33N 28°06' W 015°24'0 0.3
2016-Feb-03 20:34N 28°06' W 015°24'3 2.5
2016-Feb-03 19:33N 28°08' W 015°25'0 0.0
2016-Feb-03 18:33N 28°08' W 015°25'1 1.3
2016-Feb-03 17:33N 28°08' W 015°24'0 0.1
2016-Feb-03 16:33N 28°08' W 015°24'0 0.0
2016-Feb-03 15:33N 28°08' W 015°24'0 0.0
2016-Feb-03 14:33N 28°08' W 015°24'0 0.0
2016-Feb-03 13:33N 28°08' W 015°24'0 0.0
2016-Feb-03 12:33N 28°08' W 015°24'0 0.0
2016-Feb-03 11:33N 28°08' W 015°24'0 0.0
2016-Feb-03 10:33N 28°08' W 015°24'1 1.2
2016-Feb-03 09:33N 28°08' W 015°25'1 0.7
2016-Feb-03 08:33N 28°08' W 015°25'0 0.0
2016-Feb-03 07:33N 28°08' W 015°25'0 0.0
2016-Feb-03 06:33N 28°08' W 015°25'0 0.0
2016-Feb-03 05:33N 28°08' W 015°25'0 0.0
2016-Feb-03 04:33N 28°08' W 015°25'0 0.0
2016-Feb-03 03:33N 28°08' W 015°25'0 0.0
2016-Feb-03 02:33N 28°08' W 015°25'0 0.0
2016-Feb-03 01:33N 28°08' W 015°25'0 0.0
2016-Feb-03 00:33N 28°08' W 015°25'0 0.0
2016-Feb-02 23:33N 28°08' W 015°25'0 0.0
2016-Feb-02 22:33N 28°08' W 015°25'0 0.0
2016-Feb-02 21:33N 28°08' W 015°25'0 0.0
2016-Feb-02 20:33N 28°08' W 015°25'0 0.0
2016-Feb-02 19:33N 28°08' W 015°25'0 0.0
2016-Feb-02 18:33N 28°08' W 015°25'0 0.0
2016-Feb-02 17:33N 28°08' W 015°25'0 0.0
2016-Feb-02 16:33N 28°08' W 015°25'0 0.0
2016-Feb-02 15:33N 28°08' W 015°25'0 0.0
2016-Feb-02 14:33N 28°08' W 015°25'0 0.0
2016-Feb-02 13:33N 28°08' W 015°25'0 0.0
2016-Feb-02 12:33N 28°08' W 015°25'0 0.0
2016-Feb-02 11:33N 28°08' W 015°25'0 0.0
2016-Feb-02 10:33N 28°08' W 015°25'0 0.0
2016-Feb-02 09:33N 28°08' W 015°25'0 0.0
2016-Feb-02 08:33N 28°08' W 015°25'0 0.0
2016-Feb-02 07:33N 28°08' W 015°25'0 0.0
2016-Feb-02 06:33N 28°08' W 015°25'0 0.0
2016-Feb-02 05:33N 28°08' W 015°25'0 0.0
2016-Feb-02 04:33N 28°08' W 015°25'0 0.0
2016-Feb-02 03:33N 28°08' W 015°25'0 0.0
2016-Feb-02 02:33N 28°08' W 015°25'0 0.0
2016-Feb-02 01:33N 28°08' W 015°25'0 0.0
2016-Feb-02 00:33N 28°08' W 015°25'0 0.0
2016-Feb-01 23:33N 28°08' W 015°25'0 0.0
2016-Feb-01 22:33N 28°08' W 015°25'3 3.0
2016-Feb-01 21:34N 28°06' W 015°23'0 0.0
2016-Feb-01 20:33N 28°06' W 015°23'0 0.0
2016-Feb-01 19:33N 28°06' W 015°23'0 0.4
2016-Feb-01 18:33N 28°06' W 015°23'3 2.6
2016-Feb-01 17:33N 28°09' W 015°24'0 0.0
2016-Feb-01 16:33N 28°09' W 015°24'0 0.0
2016-Feb-01 15:33N 28°09' W 015°24'0 0.0
2016-Feb-01 14:33N 28°09' W 015°24'0 0.1
2016-Feb-01 13:33N 28°09' W 015°24'0 0.0
2016-Feb-01 12:33N 28°09' W 015°24'0 0.0
2016-Feb-01 11:33N 28°09' W 015°24'0 0.4
2016-Feb-01 10:33N 28°08' W 015°24'0 0.1
2016-Feb-01 09:33N 28°08' W 015°24'0 0.0
2016-Feb-01 08:33N 28°08' W 015°24'0 0.0
2016-Feb-01 07:33N 28°08' W 015°24'0 0.0
2016-Feb-01 06:33N 28°08' W 015°24'0 0.0
2016-Feb-01 05:33N 28°08' W 015°24'1 1.0
2016-Feb-01 04:33N 28°08' W 015°24'1 0.9
2016-Feb-01 03:33N 28°08' W 015°25'0 0.0
2016-Feb-01 02:33N 28°08' W 015°25'0 0.0
2016-Feb-01 01:33N 28°08' W 015°25'0 0.0
2016-Feb-01 00:33N 28°08' W 015°25'0 0.0
2016-Jan-31 23:33N 28°08' W 015°25'0 0.0
2016-Jan-31 22:33N 28°08' W 015°25'0 0.2
2016-Jan-31 21:33N 28°08' W 015°25'0 0.0
2016-Jan-31 20:33N 28°08' W 015°25'0 0.0
2016-Jan-31 19:34N 28°08' W 015°25'0 0.2
2016-Jan-31 18:33N 28°08' W 015°25'1 0.9
2016-Jan-31 17:33N 28°07' W 015°25'0 0.0
2016-Jan-31 16:33N 28°07' W 015°25'0 0.0
2016-Jan-31 15:33N 28°07' W 015°25'0 0.0
2016-Jan-31 14:33N 28°07' W 015°25'1 1.1
2016-Jan-31 13:33N 28°08' W 015°25'0 0.0
2016-Jan-31 12:33N 28°08' W 015°25'0 0.0
2016-Jan-31 11:33N 28°08' W 015°25'0 0.0
2016-Jan-31 10:33N 28°08' W 015°25'0 0.0
2016-Jan-31 09:33N 28°08' W 015°25'0 0.0
2016-Jan-31 08:33N 28°08' W 015°25'0 0.4
2016-Jan-31 07:33N 28°08' W 015°25'0 0.0
2016-Jan-31 06:33N 28°08' W 015°25'0 0.0
2016-Jan-31 05:33N 28°08' W 015°25'0 0.0
2016-Jan-31 04:33N 28°08' W 015°25'0 0.0
2016-Jan-31 03:33N 28°08' W 015°25'0 0.0
2016-Jan-31 02:33N 28°08' W 015°25'0 0.0
2016-Jan-31 01:33N 28°08' W 015°25'0 0.0
2016-Jan-31 00:33N 28°08' W 015°25'0 0.0
2016-Jan-30 23:33N 28°08' W 015°25'0 0.0
2016-Jan-30 22:33N 28°08' W 015°25'0 0.0
2016-Jan-30 21:33N 28°08' W 015°25'0 0.0
2016-Jan-30 20:33N 28°08' W 015°25'0 0.0
2016-Jan-30 19:33N 28°08' W 015°25'0 0.0
2016-Jan-30 18:33N 28°08' W 015°25'0 0.0
2016-Jan-30 17:33N 28°08' W 015°25'0 0.0
2016-Jan-30 16:33N 28°08' W 015°25'3 2.9
2016-Jan-30 15:33N 28°06' W 015°24'0 0.0
2016-Jan-30 14:33N 28°06' W 015°24'1 1.4
2016-Jan-30 13:33N 28°07' W 015°25'2 1.5
2016-Jan-30 12:33N 28°08' W 015°25'0 0.0
2016-Jan-30 11:33N 28°08' W 015°25'0 0.0
2016-Jan-30 10:33N 28°08' W 015°25'0 0.0
2016-Jan-30 09:33N 28°08' W 015°25'0 0.0
2016-Jan-30 08:33N 28°08' W 015°25'0 0.0
2016-Jan-30 07:33N 28°08' W 015°25'0 0.0
2016-Jan-30 06:33N 28°08' W 015°25'0 0.0
2016-Jan-30 05:33N 28°08' W 015°25'  
Track history (hours):
 
Tides and Currents Weather Stations Pressure Air Temp Water Temp Dewpoint Dewpoint Depression Visibility Wind Speed Wind Dir Waves Ship Positions

Spabunker 21

Last reported at 2016-Feb-09 05:33 UTC. Time now 2016-Feb-09 05:52 UTC.
Position N 28°08' W 015°25'.

Length 82 m; draft 4.1 m.

Type: Ship. MMSI: 224976000.

Date/timePositionNaut miles runAvg speedWind from/ knotsBaromVisibWave heightAir tempDewpointWater temp
2016-Feb-09 05:33N 28°08' W 015°25'0 0.0
2016-Feb-09 04:33N 28°08' W 015°25'0 0.0
2016-Feb-09 03:33N 28°09' W 015°25'0 0.0
2016-Feb-09 02:33N 28°08' W 015°25'0 0.0
2016-Feb-09 01:33N 28°09' W 015°25'0 0.0
2016-Feb-09 00:33N 28°09' W 015°25'0 0.0
2016-Feb-08 23:33N 28°09' W 015°25'0 0.0
2016-Feb-08 22:33N 28°09' W 015°25'0 0.0
2016-Feb-08 21:33N 28°09' W 015°25'1 0.5
2016-Feb-08 20:33N 28°08' W 015°25'0 0.0
2016-Feb-08 19:33N 28°08' W 015°25'0 0.0
2016-Feb-08 18:34N 28°08' W 015°25'0 0.0
2016-Feb-08 17:34N 28°08' W 015°25'2 1.9
2016-Feb-08 16:34N 28°06' W 015°24'0 0.0
2016-Feb-08 15:33N 28°06' W 015°24'0 0.0
2016-Feb-08 14:33N 28°06' W 015°24'0 0.0
2016-Feb-08 13:34N 28°06' W 015°24'0 0.0
2016-Feb-08 12:34N 28°06' W 015°24'0 0.0
2016-Feb-08 11:33N 28°06' W 015°24'0 0.0
2016-Feb-08 10:33N 28°06' W 015°24'  
2016-Feb-05 13:06N 28°08' W 015°25'0 0.0
2016-Feb-05 12:33N 28°08' W 015°25'0 0.0
2016-Feb-05 11:33N 28°08' W 015°25'1 1.2
2016-Feb-05 10:33N 28°07' W 015°25'1 0.0
2016-Feb-04 06:33N 28°09' W 015°25'0 0.0
2016-Feb-04 05:33N 28°09' W 015°25'0 0.0
2016-Feb-04 04:33N 28°09' W 015°25'0 0.0
2016-Feb-04 03:33N 28°09' W 015°25'1 1.1
2016-Feb-04 02:33N 28°07' W 015°25'2 1.8
2016-Feb-04 01:33N 28°06' W 015°24'0 0.0
2016-Feb-04 00:33N 28°06' W 015°24'0 0.0
2016-Feb-03 23:33N 28°06' W 015°24'0 0.0
2016-Feb-03 22:33N 28°06' W 015°24'0 0.0
2016-Feb-03 21:33N 28°06' W 015°24'0 0.3
2016-Feb-03 20:34N 28°06' W 015°24'3 2.5
2016-Feb-03 19:33N 28°08' W 015°25'0 0.0
2016-Feb-03 18:33N 28°08' W 015°25'1 1.3
2016-Feb-03 17:33N 28°08' W 015°24'0 0.1
2016-Feb-03 16:33N 28°08' W 015°24'0 0.0
2016-Feb-03 15:33N 28°08' W 015°24'0 0.0
2016-Feb-03 14:33N 28°08' W 015°24'0 0.0
2016-Feb-03 13:33N 28°08' W 015°24'0 0.0
2016-Feb-03 12:33N 28°08' W 015°24'0 0.0
2016-Feb-03 11:33N 28°08' W 015°24'0 0.0
2016-Feb-03 10:33N 28°08' W 015°24'1 1.2
2016-Feb-03 09:33N 28°08' W 015°25'1 0.7
2016-Feb-03 08:33N 28°08' W 015°25'0 0.0
2016-Feb-03 07:33N 28°08' W 015°25'0 0.0
2016-Feb-03 06:33N 28°08' W 015°25'0 0.0
2016-Feb-03 05:33N 28°08' W 015°25'0 0.0
2016-Feb-03 04:33N 28°08' W 015°25'0 0.0
2016-Feb-03 03:33N 28°08' W 015°25'0 0.0
2016-Feb-03 02:33N 28°08' W 015°25'0 0.0
2016-Feb-03 01:33N 28°08' W 015°25'0 0.0
2016-Feb-03 00:33N 28°08' W 015°25'0 0.0
2016-Feb-02 23:33N 28°08' W 015°25'0 0.0
2016-Feb-02 22:33N 28°08' W 015°25'0 0.0
2016-Feb-02 21:33N 28°08' W 015°25'0 0.0
2016-Feb-02 20:33N 28°08' W 015°25'0 0.0
2016-Feb-02 19:33N 28°08' W 015°25'0 0.0
2016-Feb-02 18:33N 28°08' W 015°25'0 0.0
2016-Feb-02 17:33N 28°08' W 015°25'0 0.0
2016-Feb-02 16:33N 28°08' W 015°25'0 0.0
2016-Feb-02 15:33N 28°08' W 015°25'0 0.0
2016-Feb-02 14:33N 28°08' W 015°25'0 0.0
2016-Feb-02 13:33N 28°08' W 015°25'0 0.0
2016-Feb-02 12:33N 28°08' W 015°25'0 0.0
2016-Feb-02 11:33N 28°08' W 015°25'0 0.0
2016-Feb-02 10:33N 28°08' W 015°25'0 0.0
2016-Feb-02 09:33N 28°08' W 015°25'0 0.0
2016-Feb-02 08:33N 28°08' W 015°25'0 0.0
2016-Feb-02 07:33N 28°08' W 015°25'0 0.0
2016-Feb-02 06:33N 28°08' W 015°25'0 0.0
2016-Feb-02 05:33N 28°08' W 015°25'0 0.0
2016-Feb-02 04:33N 28°08' W 015°25'0 0.0
2016-Feb-02 03:33N 28°08' W 015°25'0 0.0
2016-Feb-02 02:33N 28°08' W 015°25'0 0.0
2016-Feb-02 01:33N 28°08' W 015°25'0 0.0
2016-Feb-02 00:33N 28°08' W 015°25'0 0.0
2016-Feb-01 23:33N 28°08' W 015°25'0 0.0
2016-Feb-01 22:33N 28°08' W 015°25'3 3.0
2016-Feb-01 21:34N 28°06' W 015°23'0 0.0
2016-Feb-01 20:33N 28°06' W 015°23'0 0.0
2016-Feb-01 19:33N 28°06' W 015°23'0 0.4
2016-Feb-01 18:33N 28°06' W 015°23'3 2.6
2016-Feb-01 17:33N 28°09' W 015°24'0 0.0
2016-Feb-01 16:33N 28°09' W 015°24'0 0.0
2016-Feb-01 15:33N 28°09' W 015°24'0 0.0
2016-Feb-01 14:33N 28°09' W 015°24'0 0.1
2016-Feb-01 13:33N 28°09' W 015°24'0 0.0
2016-Feb-01 12:33N 28°09' W 015°24'0 0.0
2016-Feb-01 11:33N 28°09' W 015°24'0 0.4
2016-Feb-01 10:33N 28°08' W 015°24'0 0.1
2016-Feb-01 09:33N 28°08' W 015°24'0 0.0
2016-Feb-01 08:33N 28°08' W 015°24'0 0.0
2016-Feb-01 07:33N 28°08' W 015°24'0 0.0
2016-Feb-01 06:33N 28°08' W 015°24'0 0.0
2016-Feb-01 05:33N 28°08' W 015°24'1 1.0
2016-Feb-01 04:33N 28°08' W 015°24'1 0.9
2016-Feb-01 03:33N 28°08' W 015°25'0 0.0
2016-Feb-01 02:33N 28°08' W 015°25'0 0.0
2016-Feb-01 01:33N 28°08' W 015°25'0 0.0
2016-Feb-01 00:33N 28°08' W 015°25'0 0.0
2016-Jan-31 23:33N 28°08' W 015°25'0 0.0
2016-Jan-31 22:33N 28°08' W 015°25'0 0.2
2016-Jan-31 21:33N 28°08' W 015°25'0 0.0
2016-Jan-31 20:33N 28°08' W 015°25'0 0.0
2016-Jan-31 19:34N 28°08' W 015°25'0 0.2
2016-Jan-31 18:33N 28°08' W 015°25'1 0.9
2016-Jan-31 17:33N 28°07' W 015°25'0 0.0
2016-Jan-31 16:33N 28°07' W 015°25'0 0.0
2016-Jan-31 15:33N 28°07' W 015°25'0 0.0
2016-Jan-31 14:33N 28°07' W 015°25'1 1.1
2016-Jan-31 13:33N 28°08' W 015°25'0 0.0
2016-Jan-31 12:33N 28°08' W 015°25'0 0.0
2016-Jan-31 11:33N 28°08' W 015°25'0 0.0
2016-Jan-31 10:33N 28°08' W 015°25'0 0.0
2016-Jan-31 09:33N 28°08' W 015°25'0 0.0
2016-Jan-31 08:33N 28°08' W 015°25'0 0.4
2016-Jan-31 07:33N 28°08' W 015°25'0 0.0
2016-Jan-31 06:33N 28°08' W 015°25'0 0.0
2016-Jan-31 05:33N 28°08' W 015°25'0 0.0
2016-Jan-31 04:33N 28°08' W 015°25'0 0.0
2016-Jan-31 03:33N 28°08' W 015°25'0 0.0
2016-Jan-31 02:33N 28°08' W 015°25'0 0.0
2016-Jan-31 01:33N 28°08' W 015°25'0 0.0
2016-Jan-31 00:33N 28°08' W 015°25'0 0.0
2016-Jan-30 23:33N 28°08' W 015°25'0 0.0
2016-Jan-30 22:33N 28°08' W 015°25'0 0.0
2016-Jan-30 21:33N 28°08' W 015°25'0 0.0
2016-Jan-30 20:33N 28°08' W 015°25'0 0.0
2016-Jan-30 19:33N 28°08' W 015°25'0 0.0
2016-Jan-30 18:33N 28°08' W 015°25'0 0.0
2016-Jan-30 17:33N 28°08' W 015°25'0 0.0
2016-Jan-30 16:33N 28°08' W 015°25'3 2.9
2016-Jan-30 15:33N 28°06' W 015°24'0 0.0
2016-Jan-30 14:33N 28°06' W 015°24'1 1.4
2016-Jan-30 13:33N 28°07' W 015°25'2 1.5
2016-Jan-30 12:33N 28°08' W 015°25'0 0.0
2016-Jan-30 11:33N 28°08' W 015°25'0 0.0
2016-Jan-30 10:33N 28°08' W 015°25'0 0.0
2016-Jan-30 09:33N 28°08' W 015°25'0 0.0
2016-Jan-30 08:33N 28°08' W 015°25'0 0.0
2016-Jan-30 07:33N 28°08' W 015°25'0 0.0
2016-Jan-30 06:33N 28°08' W 015°25'0 0.0
2016-Jan-30 05:33N 28°08' W 015°25'  

Dump ship's entire track history